createdAt,value
2023-03-06T00:00:44.974Z,2.80
2023-03-06T00:03:12.233Z,2.80
2023-03-06T00:05:40.008Z,2.80
2023-03-06T00:08:07.285Z,2.80
2023-03-06T00:10:35.841Z,2.80
2023-03-06T00:13:05.278Z,2.70
2023-03-06T00:15:32.835Z,2.70
2023-03-06T00:18:00.146Z,2.70
2023-03-06T00:20:27.682Z,2.70
2023-03-06T00:22:56.290Z,2.70
2023-03-06T00:25:24.178Z,2.70
2023-03-06T00:27:52.981Z,2.70
2023-03-06T00:30:22.630Z,2.60
2023-03-06T00:32:50.525Z,2.50
2023-03-06T00:35:17.984Z,2.50
2023-03-06T00:37:45.458Z,2.50
2023-03-06T00:40:15.369Z,2.50
2023-03-06T00:42:42.701Z,2.50
2023-03-06T00:45:11.930Z,2.50
2023-03-06T00:47:39.560Z,2.50
2023-03-06T00:50:07.676Z,2.50
2023-03-06T00:52:34.951Z,2.40
2023-03-06T00:55:02.207Z,2.40
2023-03-06T00:57:29.443Z,2.40
2023-03-06T00:59:57.876Z,2.40
2023-03-06T01:02:26.453Z,2.40
2023-03-06T01:04:55.120Z,2.30
2023-03-06T01:07:22.406Z,2.30
2023-03-06T01:09:50.867Z,2.20
2023-03-06T01:12:18.120Z,2.20
2023-03-06T01:14:45.393Z,2.20
2023-03-06T01:17:12.606Z,2.20
2023-03-06T01:19:41.184Z,2.30
2023-03-06T01:22:08.365Z,2.30
2023-03-06T01:24:35.583Z,2.30
2023-03-06T01:27:02.833Z,2.30
2023-03-06T01:29:30.061Z,2.30
2023-03-06T01:31:57.281Z,2.30
2023-03-06T01:34:24.515Z,2.30
2023-03-06T01:36:53.065Z,2.20
2023-03-06T01:39:20.277Z,2.20
2023-03-06T01:41:47.476Z,2.10
2023-03-06T01:44:14.763Z,2.20
2023-03-06T01:46:43.064Z,2.20
2023-03-06T01:49:16.538Z,2.20
2023-03-06T01:51:48.676Z,2.10
2023-03-06T01:54:22.466Z,2.20
2023-03-06T01:56:54.059Z,2.20
2023-03-06T01:59:23.510Z,2.20
2023-03-06T02:01:51.037Z,2.20
2023-03-06T02:04:19.273Z,2.20
2023-03-06T02:06:47.655Z,2.20
2023-03-06T02:09:16.803Z,2.20
2023-03-06T02:11:46.158Z,2.20
2023-03-06T02:14:16.664Z,2.20
2023-03-06T02:16:44.602Z,2.20
2023-03-06T02:19:33.626Z,2.10
2023-03-06T02:22:01.081Z,2.10
2023-03-06T02:24:38.708Z,2.10
2023-03-06T02:27:09.773Z,2.10
2023-03-06T02:29:38.007Z,2.10
2023-03-06T02:32:05.915Z,2.10
2023-03-06T02:34:57.633Z,2.10
2023-03-06T02:37:27.415Z,2.10
2023-03-06T02:40:01.671Z,2.10
2023-03-06T02:42:30.683Z,2.10
2023-03-06T02:45:01.187Z,2.10
2023-03-06T02:47:28.443Z,2.10
2023-03-06T02:49:55.678Z,2.10
2023-03-06T02:52:22.928Z,2.10
2023-03-06T02:54:50.143Z,2.20
2023-03-06T02:57:17.677Z,2.20
2023-03-06T02:59:46.961Z,2.20
2023-03-06T03:02:14.402Z,2.20
2023-03-06T03:04:41.655Z,2.20
2023-03-06T03:07:09.538Z,2.20
2023-03-06T03:09:36.903Z,2.20
2023-03-06T03:12:07.098Z,2.20
2023-03-06T03:14:34.769Z,2.20
2023-03-06T03:17:04.691Z,2.20
2023-03-06T03:19:31.917Z,2.20
2023-03-06T03:21:59.176Z,2.30
2023-03-06T03:24:26.809Z,2.30
2023-03-06T03:26:55.076Z,2.30
2023-03-06T03:29:23.883Z,2.30
2023-03-06T03:31:51.402Z,2.30
2023-03-06T03:34:20.037Z,2.30
2023-03-06T03:36:47.596Z,2.30
2023-03-06T03:39:15.596Z,2.30
2023-03-06T03:41:43.704Z,2.30
2023-03-06T03:44:12.466Z,2.30
2023-03-06T03:46:39.862Z,2.20
2023-03-06T03:49:12.054Z,2.20
2023-03-06T03:51:40.731Z,2.30
2023-03-06T03:54:08.057Z,2.30
2023-03-06T03:56:44.856Z,2.40
2023-03-06T03:59:18.076Z,2.40
2023-03-06T04:01:59.632Z,2.40
2023-03-06T04:04:27.540Z,2.50
2023-03-06T04:06:56.061Z,2.50
2023-03-06T04:09:23.476Z,2.40
2023-03-06T04:11:51.140Z,2.40
2023-03-06T04:14:18.628Z,2.40
2023-03-06T04:16:45.869Z,2.40
2023-03-06T04:19:13.156Z,2.50
2023-03-06T04:21:40.955Z,2.40
2023-03-06T04:24:10.527Z,2.50
2023-03-06T04:26:37.793Z,2.50
2023-03-06T04:29:06.220Z,2.50
2023-03-06T04:31:33.841Z,2.50
2023-03-06T04:34:01.142Z,2.50
2023-03-06T04:36:30.225Z,2.40
2023-03-06T04:39:01.841Z,2.50
2023-03-06T04:41:30.683Z,2.50
2023-03-06T04:43:58.039Z,2.60
2023-03-06T04:46:25.270Z,2.70
2023-03-06T04:48:52.477Z,2.60
2023-03-06T04:51:19.682Z,2.60
2023-03-06T04:53:46.898Z,2.60
2023-03-06T04:56:14.113Z,2.50
2023-03-06T04:58:43.012Z,2.50
2023-03-06T05:01:10.444Z,2.40
2023-03-06T05:03:37.707Z,2.50
2023-03-06T05:06:05.584Z,2.40
2023-03-06T05:08:32.914Z,2.50
2023-03-06T05:11:01.868Z,2.50
2023-03-06T05:13:29.455Z,2.60
2023-03-06T05:16:02.972Z,2.50
2023-03-06T05:18:30.257Z,2.40
2023-03-06T05:20:59.782Z,2.40
2023-03-06T05:23:27.224Z,2.40
2023-03-06T05:25:54.479Z,2.40
2023-03-06T05:28:21.700Z,2.40
2023-03-06T05:30:49.166Z,2.40
2023-03-06T05:33:18.148Z,2.40
2023-03-06T05:35:47.169Z,2.40
2023-03-06T05:38:15.015Z,2.40
2023-03-06T05:40:43.830Z,2.40
2023-03-06T05:43:11.899Z,2.40
2023-03-06T05:45:40.550Z,2.40
2023-03-06T05:48:08.727Z,2.40
2023-03-06T05:50:37.230Z,2.50
2023-03-06T05:53:05.985Z,2.40
2023-03-06T05:55:33.174Z,2.40
2023-03-06T05:58:00.451Z,2.30
2023-03-06T06:00:27.664Z,2.40
2023-03-06T06:02:54.872Z,2.40
2023-03-06T06:05:22.102Z,2.40
2023-03-06T06:07:50.629Z,2.40
2023-03-06T06:10:17.994Z,2.40
2023-03-06T06:12:45.179Z,2.40
2023-03-06T06:15:12.493Z,2.30
2023-03-06T06:17:39.706Z,2.20
2023-03-06T06:20:08.504Z,2.20
2023-03-06T06:22:37.407Z,2.30
2023-03-06T06:25:07.398Z,2.30
2023-03-06T06:27:34.851Z,2.30
2023-03-06T06:30:02.083Z,2.30
2023-03-06T06:32:29.314Z,2.30
2023-03-06T06:34:56.856Z,2.30
2023-03-06T06:37:24.799Z,2.20
2023-03-06T06:39:52.443Z,2.20
2023-03-06T06:42:31.960Z,2.10
2023-03-06T06:45:01.502Z,2.10
2023-03-06T06:47:28.737Z,2.10
2023-03-06T06:49:57.100Z,2.20
2023-03-06T06:52:24.935Z,2.30
2023-03-06T06:54:52.770Z,2.30
2023-03-06T06:57:21.841Z,2.30
2023-03-06T06:59:50.641Z,2.30
2023-03-06T07:02:19.046Z,2.30
2023-03-06T07:05:01.895Z,2.30
2023-03-06T07:07:29.574Z,2.20
2023-03-06T07:09:56.899Z,2.30
2023-03-06T07:12:25.427Z,2.30
2023-03-06T07:14:52.627Z,2.40
2023-03-06T07:17:19.875Z,2.40
2023-03-06T07:19:48.074Z,2.30
2023-03-06T07:22:15.415Z,2.40
2023-03-06T07:24:42.631Z,2.40
2023-03-06T07:27:09.862Z,2.40
2023-03-06T07:29:38.401Z,2.30
2023-03-06T07:32:06.043Z,2.20
2023-03-06T07:34:33.344Z,2.20
2023-03-06T07:37:00.561Z,2.20
2023-03-06T07:39:29.965Z,2.30
2023-03-06T07:41:58.569Z,2.20
2023-03-06T07:44:25.902Z,2.10
2023-03-06T07:46:54.525Z,2.20
2023-03-06T07:49:21.939Z,2.30
2023-03-06T07:51:49.492Z,2.20
2023-03-06T07:54:19.692Z,2.20
2023-03-06T07:56:50.069Z,2.30
2023-03-06T07:59:17.372Z,2.30
2023-03-06T08:01:44.629Z,2.30
2023-03-06T08:04:13.358Z,2.40
2023-03-06T08:06:40.671Z,2.30
2023-03-06T08:09:08.255Z,2.30
2023-03-06T08:11:35.453Z,2.20
2023-03-06T08:14:02.817Z,2.30
2023-03-06T08:16:30.897Z,2.30
2023-03-06T08:18:58.511Z,2.40
2023-03-06T08:21:28.049Z,2.50
2023-03-06T08:23:56.108Z,2.50
2023-03-06T08:26:25.287Z,2.50
2023-03-06T08:28:53.289Z,2.60
2023-03-06T08:31:27.076Z,2.60
2023-03-06T08:33:55.401Z,2.60
2023-03-06T08:36:22.653Z,2.70
2023-03-06T08:38:51.576Z,2.80
2023-03-06T08:41:20.348Z,2.80
2023-03-06T08:43:48.294Z,2.80
2023-03-06T08:46:16.002Z,2.70
2023-03-06T08:48:43.253Z,2.80
2023-03-06T08:51:11.247Z,2.70
2023-03-06T08:53:43.596Z,2.70
2023-03-06T08:56:17.856Z,2.70
2023-03-06T08:58:45.094Z,2.60
2023-03-06T09:01:16.877Z,2.60
2023-03-06T09:03:44.206Z,2.60
2023-03-06T09:06:11.887Z,2.60
2023-03-06T09:08:43.090Z,2.50
2023-03-06T09:11:11.068Z,2.50
2023-03-06T09:13:39.669Z,2.60
2023-03-06T09:16:07.335Z,2.60
2023-03-06T09:18:34.617Z,2.70
2023-03-06T09:21:01.918Z,2.80
2023-03-06T09:23:29.220Z,2.70
2023-03-06T09:25:58.946Z,2.60
2023-03-06T09:28:45.198Z,2.60
2023-03-06T09:31:15.548Z,2.60
2023-03-06T09:33:43.209Z,2.70
2023-03-06T09:36:14.950Z,2.70
2023-03-06T09:38:42.263Z,2.80
2023-03-06T09:41:22.103Z,2.80
2023-03-06T09:43:53.255Z,2.80
2023-03-06T09:46:25.411Z,2.70
2023-03-06T09:49:02.674Z,2.80
2023-03-06T09:51:36.562Z,2.80
2023-03-06T09:54:11.527Z,2.70
2023-03-06T09:56:39.097Z,2.70
2023-03-06T09:59:14.215Z,2.80
2023-03-06T10:01:44.400Z,2.70
2023-03-06T10:04:27.698Z,2.60
2023-03-06T10:06:59.571Z,2.50
2023-03-06T10:09:37.171Z,2.50
2023-03-06T10:12:09.498Z,2.50
2023-03-06T10:14:41.821Z,2.60
2023-03-06T10:17:15.620Z,2.50
2023-03-06T10:19:42.982Z,2.50
2023-03-06T10:22:19.700Z,2.50
2023-03-06T10:24:54.463Z,2.50
2023-03-06T10:27:32.791Z,2.50
2023-03-06T10:30:21.871Z,2.50
2023-03-06T10:32:58.368Z,2.50
2023-03-06T10:35:31.049Z,2.50
2023-03-06T10:38:01.776Z,2.40
2023-03-06T10:40:40.634Z,2.40
2023-03-06T10:43:12.177Z,2.50
2023-03-06T10:45:51.798Z,2.60
2023-03-06T10:48:21.390Z,2.50
2023-03-06T10:50:48.932Z,2.40
2023-03-06T10:53:21.431Z,2.50
2023-03-06T10:55:53.747Z,2.60
2023-03-06T10:58:24.675Z,2.60
2023-03-06T11:01:07.229Z,2.60
2023-03-06T11:03:35.402Z,2.70
2023-03-06T11:06:07.349Z,2.60
2023-03-06T11:08:35.424Z,2.60
2023-03-06T11:11:05.807Z,2.60
2023-03-06T11:13:35.697Z,2.70
2023-03-06T11:16:07.422Z,2.80
2023-03-06T11:18:38.571Z,2.80
2023-03-06T11:21:22.311Z,2.60
2023-03-06T11:23:50.596Z,2.50
2023-03-06T11:26:44.956Z,2.70
2023-03-06T11:29:35.322Z,2.70
2023-03-06T11:32:12.390Z,2.70
2023-03-06T11:34:47.251Z,2.80
2023-03-06T11:37:23.317Z,2.80
2023-03-06T11:39:59.471Z,2.80
2023-03-06T11:42:29.053Z,2.80
2023-03-06T11:45:11.268Z,2.80
2023-03-06T11:47:44.060Z,2.80
2023-03-06T11:50:18.988Z,2.70
2023-03-06T11:52:50.595Z,2.60
2023-03-06T11:55:27.602Z,2.70
2023-03-06T11:58:11.787Z,2.70
2023-03-06T12:00:50.008Z,2.60
2023-03-06T12:03:41.827Z,2.60
2023-03-06T12:06:16.159Z,2.70
2023-03-06T12:08:55.954Z,2.70
2023-03-06T12:11:30.652Z,2.80
2023-03-06T12:14:18.662Z,2.90
2023-03-06T12:17:00.188Z,2.90
2023-03-06T12:19:43.485Z,2.90
2023-03-06T12:22:26.250Z,2.90
2023-03-06T12:25:25.709Z,3.00
2023-03-06T12:28:03.149Z,3.10
2023-03-06T12:30:53.503Z,3.20
2023-03-06T12:33:30.914Z,3.20
2023-03-06T12:36:12.426Z,3.30
2023-03-06T12:39:05.735Z,3.40
2023-03-06T12:41:42.863Z,3.50
2023-03-06T12:44:30.931Z,3.50
2023-03-06T12:47:01.909Z,3.50
2023-03-06T12:49:33.137Z,3.40
2023-03-06T12:52:04.348Z,3.60
2023-03-06T12:54:35.935Z,3.80
2023-03-06T12:57:06.853Z,3.90
2023-03-06T12:59:39.746Z,4.00
2023-03-06T13:02:28.863Z,4.00
2023-03-06T13:05:21.576Z,4.10
2023-03-06T13:08:10.282Z,4.20
2023-03-06T13:10:40.337Z,4.40
2023-03-06T13:13:29.402Z,4.40
2023-03-06T13:16:11.445Z,4.50
2023-03-06T13:19:04.096Z,4.70
2023-03-06T13:21:47.217Z,4.90
2023-03-06T13:24:18.983Z,5.00
2023-03-06T13:26:58.121Z,5.10
2023-03-06T13:29:58.719Z,5.50
2023-03-06T13:32:31.482Z,5.80
2023-03-06T13:34:58.890Z,6.20
2023-03-06T13:37:48.617Z,6.50
2023-03-06T13:40:28.518Z,6.80
2023-03-06T13:43:28.622Z,7.10
2023-03-06T13:45:55.926Z,7.50
2023-03-06T13:48:44.823Z,7.80
2023-03-06T13:51:23.868Z,8.00
2023-03-06T13:54:12.092Z,8.20
2023-03-06T13:57:04.198Z,8.40
2023-03-06T13:59:57.042Z,8.70
2023-03-06T14:02:53.566Z,8.90
2023-03-06T14:05:21.765Z,9.10
2023-03-06T14:08:01.802Z,9.10
2023-03-06T14:10:32.668Z,9.10
2023-03-06T14:13:07.123Z,9.20
2023-03-06T14:15:44.412Z,9.20
2023-03-06T14:18:19.115Z,9.00
2023-03-06T14:20:50.448Z,8.90
2023-03-06T14:23:26.556Z,8.80
2023-03-06T14:26:05.374Z,8.70
2023-03-06T14:28:35.540Z,8.70
2023-03-06T14:31:05.044Z,8.70
2023-03-06T14:33:39.169Z,8.70
2023-03-06T14:36:10.651Z,8.80
2023-03-06T14:38:45.053Z,8.80
2023-03-06T14:41:14.106Z,8.90
2023-03-06T14:43:42.861Z,9.00
2023-03-06T14:46:19.434Z,9.00
2023-03-06T14:48:48.694Z,9.20
2023-03-06T14:51:18.351Z,9.30
2023-03-06T14:53:48.565Z,9.30
2023-03-06T14:56:18.660Z,9.20
2023-03-06T14:58:55.343Z,9.20
2023-03-06T15:01:28.520Z,9.40
2023-03-06T15:03:58.899Z,9.30
2023-03-06T15:06:31.284Z,9.30
2023-03-06T15:09:02.080Z,9.10
2023-03-06T15:11:54.211Z,9.10
2023-03-06T15:14:33.383Z,9.30
2023-03-06T15:17:26.146Z,9.40
2023-03-06T15:19:55.197Z,9.50
2023-03-06T15:22:28.837Z,9.40
2023-03-06T15:25:17.624Z,9.40
2023-03-06T15:27:49.441Z,9.50
2023-03-06T15:30:25.560Z,9.50
2023-03-06T15:33:22.234Z,9.50
2023-03-06T15:35:54.970Z,9.30
2023-03-06T15:38:31.427Z,9.20
2023-03-06T15:41:00.201Z,9.10
2023-03-06T15:43:28.547Z,9.00
2023-03-06T15:46:00.213Z,8.80
2023-03-06T15:48:28.336Z,8.60
2023-03-06T15:50:55.677Z,8.50
2023-03-06T15:53:23.092Z,8.30
2023-03-06T15:55:51.637Z,8.00
2023-03-06T15:58:23.361Z,7.80
2023-03-06T16:00:51.032Z,7.40
2023-03-06T16:03:19.618Z,7.00
2023-03-06T16:05:46.884Z,6.70
2023-03-06T16:08:14.928Z,6.50
2023-03-06T16:10:44.001Z,6.60
2023-03-06T16:13:13.839Z,6.60
2023-03-06T16:15:46.295Z,6.40
2023-03-06T16:18:13.869Z,6.20
2023-03-06T16:20:42.625Z,6.10
2023-03-06T16:23:10.653Z,5.90
2023-03-06T16:25:39.311Z,5.80
2023-03-06T16:28:11.587Z,5.70
2023-03-06T16:30:38.849Z,5.70
2023-03-06T16:33:06.377Z,5.60
2023-03-06T16:35:33.688Z,5.60
2023-03-06T16:38:02.432Z,5.50
2023-03-06T16:40:32.518Z,5.40
2023-03-06T16:42:59.730Z,5.30
2023-03-06T16:45:27.078Z,5.20
2023-03-06T16:47:54.527Z,5.20
2023-03-06T16:50:24.199Z,5.00
2023-03-06T16:52:53.207Z,4.90
2023-03-06T16:55:23.221Z,4.80
2023-03-06T16:57:50.461Z,4.70
2023-03-06T17:00:19.118Z,4.70
2023-03-06T17:02:49.030Z,4.60
2023-03-06T17:05:17.031Z,4.50
2023-03-06T17:07:44.474Z,4.30
2023-03-06T17:10:14.631Z,4.20
2023-03-06T17:12:43.586Z,4.10
2023-03-06T17:15:11.560Z,4.10
2023-03-06T17:17:38.783Z,4.00
2023-03-06T17:20:12.637Z,3.90
2023-03-06T17:22:41.485Z,3.70
2023-03-06T17:25:09.604Z,3.50
2023-03-06T17:27:37.467Z,3.40
2023-03-06T17:30:07.379Z,3.30
2023-03-06T17:32:34.790Z,3.40
2023-03-06T17:35:02.047Z,3.40
2023-03-06T17:37:29.423Z,3.30
2023-03-06T17:39:56.692Z,3.30
2023-03-06T17:42:23.917Z,3.30
2023-03-06T17:44:52.864Z,3.20
2023-03-06T17:47:21.405Z,3.20
2023-03-06T17:49:48.651Z,3.20
2023-03-06T17:52:15.870Z,3.20
2023-03-06T17:54:43.065Z,3.10
2023-03-06T17:57:10.253Z,3.10
2023-03-06T17:59:37.518Z,3.00
2023-03-06T18:02:06.324Z,3.00
2023-03-06T18:04:35.030Z,2.90
2023-03-06T18:07:02.322Z,2.80
2023-03-06T18:09:29.677Z,2.80
2023-03-06T18:11:56.884Z,2.80
2023-03-06T18:14:24.393Z,2.70
2023-03-06T18:16:51.662Z,2.60
2023-03-06T18:19:18.956Z,2.50
2023-03-06T18:21:47.551Z,2.50
2023-03-06T18:24:14.790Z,2.50
2023-03-06T18:26:42.510Z,2.50
2023-03-06T18:29:10.072Z,2.40
2023-03-06T18:31:38.487Z,2.30
2023-03-06T18:34:08.039Z,2.30
2023-03-06T18:36:35.740Z,2.30
2023-03-06T18:39:06.133Z,2.30
2023-03-06T18:41:33.371Z,2.30
2023-03-06T18:44:02.065Z,2.30
2023-03-06T18:46:30.861Z,2.20
2023-03-06T18:48:58.345Z,2.20
2023-03-06T18:51:26.092Z,2.10
2023-03-06T18:53:56.095Z,1.90
2023-03-06T18:56:24.842Z,1.80
2023-03-06T18:58:53.445Z,1.80
2023-03-06T19:01:22.395Z,1.80
2023-03-06T19:03:49.979Z,1.80
2023-03-06T19:06:17.671Z,1.80
2023-03-06T19:08:45.175Z,1.80
2023-03-06T19:11:18.180Z,1.70
2023-03-06T19:13:46.791Z,1.70
2023-03-06T19:16:18.456Z,1.70
2023-03-06T19:18:45.881Z,1.70
2023-03-06T19:21:14.921Z,1.70
2023-03-06T19:23:42.722Z,1.60
2023-03-06T19:26:10.694Z,1.60
2023-03-06T19:28:39.780Z,1.60
2023-03-06T19:31:13.384Z,1.50
2023-03-06T19:33:41.670Z,1.50
2023-03-06T19:36:11.464Z,1.40
2023-03-06T19:38:39.162Z,1.40
2023-03-06T19:41:11.718Z,1.50
2023-03-06T19:43:39.946Z,1.50
2023-03-06T19:46:12.571Z,1.40
2023-03-06T19:48:40.349Z,1.40
2023-03-06T19:51:08.116Z,1.30
2023-03-06T19:53:35.552Z,1.20
2023-03-06T19:56:05.627Z,1.30
2023-03-06T19:58:33.401Z,1.20
2023-03-06T20:01:05.524Z,1.20
2023-03-06T20:03:34.196Z,1.20
2023-03-06T20:06:02.880Z,1.20
2023-03-06T20:08:30.277Z,1.20
2023-03-06T20:10:57.576Z,1.20
2023-03-06T20:13:24.893Z,1.20
2023-03-06T20:15:52.225Z,1.10
2023-03-06T20:18:19.525Z,1.10
2023-03-06T20:20:57.596Z,1.10
2023-03-06T20:23:25.026Z,1.10
2023-03-06T20:25:52.488Z,1.10
2023-03-06T20:28:19.779Z,1.00
2023-03-06T20:30:47.597Z,1.00
2023-03-06T20:33:15.404Z,1.00
2023-03-06T20:35:43.192Z,1.00
2023-03-06T20:38:11.815Z,0.90
2023-03-06T20:40:39.783Z,0.90
2023-03-06T20:43:07.706Z,0.90
2023-03-06T20:45:35.220Z,0.90
2023-03-06T20:48:02.632Z,0.80
2023-03-06T20:50:30.004Z,0.80
2023-03-06T20:52:58.796Z,0.80
2023-03-06T20:55:27.446Z,0.70
2023-03-06T20:57:54.845Z,0.70
2023-03-06T21:00:22.180Z,0.80
2023-03-06T21:02:49.559Z,0.70
2023-03-06T21:05:17.121Z,0.70
2023-03-06T21:07:44.557Z,0.80
2023-03-06T21:10:13.330Z,0.80
2023-03-06T21:12:42.362Z,0.80
2023-03-06T21:15:10.454Z,0.70
2023-03-06T21:17:37.819Z,0.80
2023-03-06T21:20:06.512Z,0.70
2023-03-06T21:22:33.971Z,0.70
2023-03-06T21:25:01.378Z,0.70
2023-03-06T21:27:28.674Z,0.70
2023-03-06T21:29:57.285Z,0.70
2023-03-06T21:32:24.545Z,0.60
2023-03-06T21:34:51.838Z,0.60
2023-03-06T21:37:19.162Z,0.60
2023-03-06T21:39:46.498Z,0.60
2023-03-06T21:42:13.847Z,0.60
2023-03-06T21:44:41.235Z,0.50
2023-03-06T21:47:09.920Z,0.50
2023-03-06T21:49:37.491Z,0.60
2023-03-06T21:52:05.007Z,0.60
2023-03-06T21:54:32.370Z,0.60
2023-03-06T21:56:59.749Z,0.60
2023-03-06T21:59:27.028Z,0.50
2023-03-06T22:01:54.354Z,0.50
2023-03-06T22:04:23.134Z,0.40
2023-03-06T22:06:50.546Z,0.50
2023-03-06T22:09:19.886Z,0.40
2023-03-06T22:11:47.390Z,0.40
2023-03-06T22:14:14.864Z,0.40
2023-03-06T22:16:44.136Z,0.40
2023-03-06T22:19:11.380Z,0.40
2023-03-06T22:21:39.946Z,0.40
2023-03-06T22:24:07.350Z,0.40
2023-03-06T22:26:34.592Z,0.40
2023-03-06T22:29:01.818Z,0.40
2023-03-06T22:31:29.341Z,0.40
2023-03-06T22:33:57.742Z,0.30
2023-03-06T22:36:25.414Z,0.30
2023-03-06T22:38:57.238Z,0.30
2023-03-06T22:41:26.716Z,0.30
2023-03-06T22:43:55.457Z,0.20
2023-03-06T22:46:22.842Z,0.20
2023-03-06T22:48:50.172Z,0.20
2023-03-06T22:51:19.587Z,0.20
2023-03-06T22:53:48.029Z,0.10
2023-03-06T22:56:19.250Z,0.20
2023-03-06T22:58:47.646Z,0.10
2023-03-06T23:01:17.208Z,0.20
2023-03-06T23:03:46.173Z,0.10
2023-03-06T23:06:15.147Z,0.10
2023-03-06T23:08:43.236Z,0.10
2023-03-06T23:11:12.541Z,0.10
2023-03-06T23:13:59.877Z,0.10
2023-03-06T23:16:46.224Z,0.00
2023-03-06T23:19:31.909Z,0.00
2023-03-06T23:22:17.643Z,0.00
2023-03-06T23:25:03.759Z,-0.20
2023-03-06T23:27:30.965Z,-0.20
2023-03-06T23:29:59.467Z,-0.20
2023-03-06T23:32:26.749Z,-0.20
2023-03-06T23:34:54.057Z,-0.20
2023-03-06T23:37:21.245Z,-0.20
2023-03-06T23:39:48.530Z,-0.20
2023-03-06T23:42:15.734Z,-0.20
2023-03-06T23:44:43.157Z,-0.20
2023-03-06T23:47:11.674Z,-0.20
2023-03-06T23:49:39.972Z,-0.20
2023-03-06T23:52:07.220Z,-0.20
2023-03-06T23:54:35.712Z,-0.20
2023-03-06T23:57:03.200Z,-0.20
2023-03-06T23:59:30.449Z,-0.20
